sensor_id;sensor_type;location;lat;lon;timestamp;P1;durP1;ratioP1;P2;durP2;ratioP2
24223;SDS011;12359;49.716;9.212;2022-09-17T00:00:45;4.97;;;2.45;;
24223;SDS011;12359;49.716;9.212;2022-09-17T00:03:12;2.63;;;1.65;;
24223;SDS011;12359;49.716;9.212;2022-09-17T00:05:38;3.75;;;1.90;;
24223;SDS011;12359;49.716;9.212;2022-09-17T00:08:04;1.35;;;1.20;;
24223;SDS011;12359;49.716;9.212;2022-09-17T00:10:32;1.13;;;1.02;;
24223;SDS011;12359;49.716;9.212;2022-09-17T00:13:06;2.78;;;1.40;;
24223;SDS011;12359;49.716;9.212;2022-09-17T00:15:32;1.83;;;1.27;;
24223;SDS011;12359;49.716;9.212;2022-09-17T00:18:10;5.03;;;1.23;;
24223;SDS011;12359;49.716;9.212;2022-09-17T00:20:40;4.30;;;1.27;;
24223;SDS011;12359;49.716;9.212;2022-09-17T00:23:07;2.25;;;1.30;;
24223;SDS011;12359;49.716;9.212;2022-09-17T00:25:33;5.57;;;1.20;;
24223;SDS011;12359;49.716;9.212;2022-09-17T00:28:02;3.25;;;1.60;;
24223;SDS011;12359;49.716;9.212;2022-09-17T00:30:28;2.28;;;1.75;;
24223;SDS011;12359;49.716;9.212;2022-09-17T00:32:54;3.17;;;1.25;;
24223;SDS011;12359;49.716;9.212;2022-09-17T00:35:21;5.28;;;1.83;;
24223;SDS011;12359;49.716;9.212;2022-09-17T00:37:51;2.75;;;1.60;;
24223;SDS011;12359;49.716;9.212;2022-09-17T00:40:17;2.53;;;1.20;;
24223;SDS011;12359;49.716;9.212;2022-09-17T00:42:43;1.88;;;1.60;;
24223;SDS011;12359;49.716;9.212;2022-09-17T00:45:09;6.00;;;1.75;;
24223;SDS011;12359;49.716;9.212;2022-09-17T00:50:19;4.70;;;1.63;;
24223;SDS011;12359;49.716;9.212;2022-09-17T00:52:55;3.15;;;1.73;;
24223;SDS011;12359;49.716;9.212;2022-09-17T00:55:24;3.00;;;1.52;;
24223;SDS011;12359;49.716;9.212;2022-09-17T00:57:54;4.10;;;1.38;;
24223;SDS011;12359;49.716;9.212;2022-09-17T01:00:23;12.07;;;2.15;;
24223;SDS011;12359;49.716;9.212;2022-09-17T01:02:50;2.50;;;1.38;;
24223;SDS011;12359;49.716;9.212;2022-09-17T01:05:17;2.25;;;1.40;;
24223;SDS011;12359;49.716;9.212;2022-09-17T01:15:48;2.17;;;1.40;;
24223;SDS011;12359;49.716;9.212;2022-09-17T01:37:41;1.83;;;1.15;;
24223;SDS011;12359;49.716;9.212;2022-09-17T01:40:24;3.65;;;1.30;;
24223;SDS011;12359;49.716;9.212;2022-09-17T01:43:11;2.30;;;1.20;;
24223;SDS011;12359;49.716;9.212;2022-09-17T01:45:49;7.60;;;1.77;;
24223;SDS011;12359;49.716;9.212;2022-09-17T01:50:53;3.03;;;1.65;;
24223;SDS011;12359;49.716;9.212;2022-09-17T01:53:24;6.60;;;2.13;;
24223;SDS011;12359;49.716;9.212;2022-09-17T01:55:55;2.20;;;1.45;;
24223;SDS011;12359;49.716;9.212;2022-09-17T01:58:27;6.43;;;1.73;;
24223;SDS011;12359;49.716;9.212;2022-09-17T02:00:58;8.40;;;1.88;;
24223;SDS011;12359;49.716;9.212;2022-09-17T02:03:29;4.72;;;1.80;;
24223;SDS011;12359;49.716;9.212;2022-09-17T02:09:00;4.45;;;1.70;;
24223;SDS011;12359;49.716;9.212;2022-09-17T02:11:32;3.63;;;2.30;;
24223;SDS011;12359;49.716;9.212;2022-09-17T02:14:22;2.88;;;2.03;;
24223;SDS011;12359;49.716;9.212;2022-09-17T02:16:54;1.88;;;1.70;;
24223;SDS011;12359;49.716;9.212;2022-09-17T02:19:27;5.13;;;2.00;;
24223;SDS011;12359;49.716;9.212;2022-09-17T02:29:43;5.47;;;2.70;;
24223;SDS011;12359;49.716;9.212;2022-09-17T02:32:10;5.00;;;1.90;;
24223;SDS011;12359;49.716;9.212;2022-09-17T02:34:36;6.07;;;1.65;;
24223;SDS011;12359;49.716;9.212;2022-09-17T02:37:03;4.05;;;1.63;;
24223;SDS011;12359;49.716;9.212;2022-09-17T02:39:29;1.70;;;1.20;;
24223;SDS011;12359;49.716;9.212;2022-09-17T03:04:31;5.47;;;2.20;;
24223;SDS011;12359;49.716;9.212;2022-09-17T03:06:57;5.53;;;1.77;;
24223;SDS011;12359;49.716;9.212;2022-09-17T03:09:24;2.42;;;2.22;;
24223;SDS011;12359;49.716;9.212;2022-09-17T03:11:50;4.53;;;2.20;;
24223;SDS011;12359;49.716;9.212;2022-09-17T03:14:16;3.95;;;1.95;;
24223;SDS011;12359;49.716;9.212;2022-09-17T03:16:44;2.25;;;2.05;;
24223;SDS011;12359;49.716;9.212;2022-09-17T03:19:12;6.22;;;2.17;;
24223;SDS011;12359;49.716;9.212;2022-09-17T03:21:38;6.00;;;1.90;;
24223;SDS011;12359;49.716;9.212;2022-09-17T03:24:04;4.63;;;2.10;;
24223;SDS011;12359;49.716;9.212;2022-09-17T03:26:29;5.00;;;2.65;;
24223;SDS011;12359;49.716;9.212;2022-09-17T03:28:55;4.35;;;2.10;;
24223;SDS011;12359;49.716;9.212;2022-09-17T03:31:21;4.13;;;2.30;;
24223;SDS011;12359;49.716;9.212;2022-09-17T03:33:46;5.93;;;2.03;;
24223;SDS011;12359;49.716;9.212;2022-09-17T03:36:12;2.90;;;2.20;;
24223;SDS011;12359;49.716;9.212;2022-09-17T03:38:38;2.15;;;1.95;;
24223;SDS011;12359;49.716;9.212;2022-09-17T03:41:04;7.70;;;2.38;;
24223;SDS011;12359;49.716;9.212;2022-09-17T03:43:33;2.83;;;1.67;;
24223;SDS011;12359;49.716;9.212;2022-09-17T03:45:59;6.03;;;2.45;;
24223;SDS011;12359;49.716;9.212;2022-09-17T03:48:25;4.95;;;2.65;;
24223;SDS011;12359;49.716;9.212;2022-09-17T03:50:51;8.95;;;3.47;;
24223;SDS011;12359;49.716;9.212;2022-09-17T03:53:17;7.75;;;3.30;;
24223;SDS011;12359;49.716;9.212;2022-09-17T03:55:43;5.18;;;2.65;;
24223;SDS011;12359;49.716;9.212;2022-09-17T03:58:08;6.25;;;1.88;;
24223;SDS011;12359;49.716;9.212;2022-09-17T04:00:34;5.15;;;2.13;;
24223;SDS011;12359;49.716;9.212;2022-09-17T04:03:03;2.95;;;2.10;;
24223;SDS011;12359;49.716;9.212;2022-09-17T04:05:29;5.68;;;2.88;;
24223;SDS011;12359;49.716;9.212;2022-09-17T04:07:57;6.10;;;2.78;;
24223;SDS011;12359;49.716;9.212;2022-09-17T04:10:23;7.00;;;2.85;;
24223;SDS011;12359;49.716;9.212;2022-09-17T04:12:49;3.35;;;2.58;;
24223;SDS011;12359;49.716;9.212;2022-09-17T04:15:14;8.20;;;2.40;;
24223;SDS011;12359;49.716;9.212;2022-09-17T04:17:40;7.32;;;2.90;;
24223;SDS011;12359;49.716;9.212;2022-09-17T04:20:06;7.70;;;2.63;;
24223;SDS011;12359;49.716;9.212;2022-09-17T04:22:32;5.97;;;2.10;;
24223;SDS011;12359;49.716;9.212;2022-09-17T04:24:58;4.93;;;2.22;;
24223;SDS011;12359;49.716;9.212;2022-09-17T04:27:23;4.97;;;2.17;;
24223;SDS011;12359;49.716;9.212;2022-09-17T04:29:49;3.45;;;1.85;;
24223;SDS011;12359;49.716;9.212;2022-09-17T04:32:15;7.43;;;2.67;;
24223;SDS011;12359;49.716;9.212;2022-09-17T04:34:43;5.65;;;2.40;;
24223;SDS011;12359;49.716;9.212;2022-09-17T04:37:09;3.63;;;2.83;;
24223;SDS011;12359;49.716;9.212;2022-09-17T04:39:34;3.00;;;2.00;;
24223;SDS011;12359;49.716;9.212;2022-09-17T04:42:02;9.27;;;2.70;;
24223;SDS011;12359;49.716;9.212;2022-09-17T04:44:27;8.32;;;2.25;;
24223;SDS011;12359;49.716;9.212;2022-09-17T04:46:53;9.32;;;3.05;;
24223;SDS011;12359;49.716;9.212;2022-09-17T04:49:19;3.55;;;2.65;;
24223;SDS011;12359;49.716;9.212;2022-09-17T04:51:45;6.53;;;2.65;;
24223;SDS011;12359;49.716;9.212;2022-09-17T04:54:10;6.22;;;2.78;;
24223;SDS011;12359;49.716;9.212;2022-09-17T04:56:36;4.05;;;1.95;;
24223;SDS011;12359;49.716;9.212;2022-09-17T04:59:02;7.30;;;4.10;;
24223;SDS011;12359;49.716;9.212;2022-09-17T05:01:27;2.92;;;2.58;;
24223;SDS011;12359;49.716;9.212;2022-09-17T05:03:53;6.95;;;2.90;;
24223;SDS011;12359;49.716;9.212;2022-09-17T05:06:18;4.80;;;2.60;;
24223;SDS011;12359;49.716;9.212;2022-09-17T05:08:44;3.97;;;2.45;;
24223;SDS011;12359;49.716;9.212;2022-09-17T05:11:10;5.95;;;2.55;;
24223;SDS011;12359;49.716;9.212;2022-09-17T05:13:35;5.65;;;3.15;;
24223;SDS011;12359;49.716;9.212;2022-09-17T05:16:01;4.10;;;2.30;;
24223;SDS011;12359;49.716;9.212;2022-09-17T05:18:27;7.40;;;3.10;;
24223;SDS011;12359;49.716;9.212;2022-09-17T05:20:53;4.20;;;2.85;;
24223;SDS011;12359;49.716;9.212;2022-09-17T05:23:18;5.68;;;2.50;;
24223;SDS011;12359;49.716;9.212;2022-09-17T05:25:44;6.93;;;2.85;;
24223;SDS011;12359;49.716;9.212;2022-09-17T05:28:10;3.45;;;2.38;;
24223;SDS011;12359;49.716;9.212;2022-09-17T05:30:35;6.85;;;2.42;;
24223;SDS011;12359;49.716;9.212;2022-09-17T05:33:03;5.45;;;3.22;;
24223;SDS011;12359;49.716;9.212;2022-09-17T05:35:31;4.07;;;2.63;;
24223;SDS011;12359;49.716;9.212;2022-09-17T05:38:01;5.75;;;3.13;;
24223;SDS011;12359;49.716;9.212;2022-09-17T05:40:29;6.25;;;2.88;;
24223;SDS011;12359;49.716;9.212;2022-09-17T05:43:00;4.45;;;3.22;;
24223;SDS011;12359;49.716;9.212;2022-09-17T05:45:27;8.60;;;3.50;;
24223;SDS011;12359;49.716;9.212;2022-09-17T05:47:57;4.90;;;3.03;;
24223;SDS011;12359;49.716;9.212;2022-09-17T05:50:24;6.53;;;3.55;;
24223;SDS011;12359;49.716;9.212;2022-09-17T05:52:51;6.70;;;2.80;;
24223;SDS011;12359;49.716;9.212;2022-09-17T05:55:17;7.45;;;2.95;;
24223;SDS011;12359;49.716;9.212;2022-09-17T05:57:44;3.92;;;3.20;;
24223;SDS011;12359;49.716;9.212;2022-09-17T06:00:09;4.90;;;2.78;;
24223;SDS011;12359;49.716;9.212;2022-09-17T06:02:36;2.78;;;2.47;;
24223;SDS011;12359;49.716;9.212;2022-09-17T06:05:02;4.20;;;2.63;;
24223;SDS011;12359;49.716;9.212;2022-09-17T06:07:28;4.03;;;2.53;;
24223;SDS011;12359;49.716;9.212;2022-09-17T06:09:54;4.07;;;2.80;;
24223;SDS011;12359;49.716;9.212;2022-09-17T06:12:20;3.28;;;2.78;;
24223;SDS011;12359;49.716;9.212;2022-09-17T06:14:46;3.42;;;2.95;;
24223;SDS011;12359;49.716;9.212;2022-09-17T06:17:12;2.75;;;2.55;;
24223;SDS011;12359;49.716;9.212;2022-09-17T06:19:37;4.05;;;2.55;;
24223;SDS011;12359;49.716;9.212;2022-09-17T06:22:03;7.28;;;2.45;;
24223;SDS011;12359;49.716;9.212;2022-09-17T06:24:30;2.85;;;2.28;;
24223;SDS011;12359;49.716;9.212;2022-09-17T06:26:56;2.22;;;2.05;;
24223;SDS011;12359;49.716;9.212;2022-09-17T06:29:22;4.25;;;2.35;;
24223;SDS011;12359;49.716;9.212;2022-09-17T06:31:48;3.75;;;2.53;;
24223;SDS011;12359;49.716;9.212;2022-09-17T06:34:14;5.75;;;3.85;;
24223;SDS011;12359;49.716;9.212;2022-09-17T06:36:40;7.35;;;2.53;;
24223;SDS011;12359;49.716;9.212;2022-09-17T06:39:06;6.30;;;2.83;;
24223;SDS011;12359;49.716;9.212;2022-09-17T06:41:32;3.78;;;2.30;;
24223;SDS011;12359;49.716;9.212;2022-09-17T06:43:58;4.68;;;2.80;;
24223;SDS011;12359;49.716;9.212;2022-09-17T06:46:23;8.68;;;3.22;;
24223;SDS011;12359;49.716;9.212;2022-09-17T06:48:49;5.18;;;2.33;;
24223;SDS011;12359;49.716;9.212;2022-09-17T06:51:15;7.15;;;2.60;;
24223;SDS011;12359;49.716;9.212;2022-09-17T06:53:41;7.10;;;3.28;;
24223;SDS011;12359;49.716;9.212;2022-09-17T06:56:07;7.45;;;3.10;;
24223;SDS011;12359;49.716;9.212;2022-09-17T06:58:34;2.72;;;2.47;;
24223;SDS011;12359;49.716;9.212;2022-09-17T07:01:05;3.88;;;2.38;;
24223;SDS011;12359;49.716;9.212;2022-09-17T07:03:32;4.20;;;2.53;;
24223;SDS011;12359;49.716;9.212;2022-09-17T07:05:57;6.00;;;2.95;;
24223;SDS011;12359;49.716;9.212;2022-09-17T07:08:23;5.65;;;3.35;;
24223;SDS011;12359;49.716;9.212;2022-09-17T07:10:50;8.07;;;2.60;;
24223;SDS011;12359;49.716;9.212;2022-09-17T07:13:19;6.32;;;2.80;;
24223;SDS011;12359;49.716;9.212;2022-09-17T07:15:52;7.20;;;2.63;;
24223;SDS011;12359;49.716;9.212;2022-09-17T07:18:22;7.07;;;2.45;;
24223;SDS011;12359;49.716;9.212;2022-09-17T07:21:06;6.43;;;2.30;;
24223;SDS011;12359;49.716;9.212;2022-09-17T07:23:34;6.57;;;2.83;;
24223;SDS011;12359;49.716;9.212;2022-09-17T07:26:02;5.03;;;3.83;;
24223;SDS011;12359;49.716;9.212;2022-09-17T07:28:29;7.88;;;3.10;;
24223;SDS011;12359;49.716;9.212;2022-09-17T07:30:55;5.20;;;3.35;;
24223;SDS011;12359;49.716;9.212;2022-09-17T07:33:22;16.65;;;4.07;;
24223;SDS011;12359;49.716;9.212;2022-09-17T07:35:53;5.93;;;3.63;;
24223;SDS011;12359;49.716;9.212;2022-09-17T07:38:21;3.38;;;3.03;;
24223;SDS011;12359;49.716;9.212;2022-09-17T07:43:23;4.75;;;2.30;;
24223;SDS011;12359;49.716;9.212;2022-09-17T07:45:50;3.80;;;2.47;;
24223;SDS011;12359;49.716;9.212;2022-09-17T07:48:17;4.53;;;2.30;;
24223;SDS011;12359;49.716;9.212;2022-09-17T07:50:46;3.83;;;2.30;;
24223;SDS011;12359;49.716;9.212;2022-09-17T07:53:12;8.57;;;2.65;;
24223;SDS011;12359;49.716;9.212;2022-09-17T07:55:38;4.70;;;2.58;;
24223;SDS011;12359;49.716;9.212;2022-09-17T07:58:04;6.80;;;2.47;;
24223;SDS011;12359;49.716;9.212;2022-09-17T08:00:29;5.93;;;2.08;;
24223;SDS011;12359;49.716;9.212;2022-09-17T08:02:55;9.38;;;2.90;;
24223;SDS011;12359;49.716;9.212;2022-09-17T08:05:23;6.05;;;2.13;;
24223;SDS011;12359;49.716;9.212;2022-09-17T08:07:49;6.55;;;2.85;;
24223;SDS011;12359;49.716;9.212;2022-09-17T08:10:16;9.68;;;2.70;;
24223;SDS011;12359;49.716;9.212;2022-09-17T08:12:46;6.25;;;3.20;;
24223;SDS011;12359;49.716;9.212;2022-09-17T08:15:19;8.88;;;2.97;;
24223;SDS011;12359;49.716;9.212;2022-09-17T08:17:44;3.95;;;2.90;;
24223;SDS011;12359;49.716;9.212;2022-09-17T08:20:11;7.47;;;2.00;;
24223;SDS011;12359;49.716;9.212;2022-09-17T08:22:37;7.15;;;2.83;;
24223;SDS011;12359;49.716;9.212;2022-09-17T08:25:04;3.03;;;2.25;;
24223;SDS011;12359;49.716;9.212;2022-09-17T08:27:30;4.57;;;2.53;;
24223;SDS011;12359;49.716;9.212;2022-09-17T08:29:56;9.65;;;2.53;;
24223;SDS011;12359;49.716;9.212;2022-09-17T08:32:22;6.38;;;2.55;;
24223;SDS011;12359;49.716;9.212;2022-09-17T08:34:48;6.45;;;3.35;;
24223;SDS011;12359;49.716;9.212;2022-09-17T08:37:14;4.82;;;2.40;;
24223;SDS011;12359;49.716;9.212;2022-09-17T08:39:40;5.90;;;2.85;;
24223;SDS011;12359;49.716;9.212;2022-09-17T08:43:07;7.43;;;2.55;;
24223;SDS011;12359;49.716;9.212;2022-09-17T08:45:08;10.85;;;2.30;;
24223;SDS011;12359;49.716;9.212;2022-09-17T08:47:38;5.72;;;2.65;;
24223;SDS011;12359;49.716;9.212;2022-09-17T08:50:30;7.03;;;2.88;;
24223;SDS011;12359;49.716;9.212;2022-09-17T09:06:38;7.40;;;2.63;;
24223;SDS011;12359;49.716;9.212;2022-09-17T09:09:15;4.60;;;2.40;;
24223;SDS011;12359;49.716;9.212;2022-09-17T09:11:44;4.30;;;2.67;;
24223;SDS011;12359;49.716;9.212;2022-09-17T09:16:47;6.80;;;2.72;;
24223;SDS011;12359;49.716;9.212;2022-09-17T09:19:26;11.02;;;2.70;;
24223;SDS011;12359;49.716;9.212;2022-09-17T09:33:23;4.45;;;2.22;;
24223;SDS011;12359;49.716;9.212;2022-09-17T09:35:54;8.50;;;2.58;;
24223;SDS011;12359;49.716;9.212;2022-09-17T09:51:44;4.72;;;1.80;;
24223;SDS011;12359;49.716;9.212;2022-09-17T09:54:24;4.13;;;3.13;;
24223;SDS011;12359;49.716;9.212;2022-09-17T09:57:12;11.40;;;4.80;;
24223;SDS011;12359;49.716;9.212;2022-09-17T09:59:40;5.72;;;3.47;;
24223;SDS011;12359;49.716;9.212;2022-09-17T10:02:06;7.38;;;2.72;;
24223;SDS011;12359;49.716;9.212;2022-09-17T10:04:32;6.55;;;2.47;;
24223;SDS011;12359;49.716;9.212;2022-09-17T10:07:05;9.60;;;2.28;;
24223;SDS011;12359;49.716;9.212;2022-09-17T10:09:33;3.83;;;2.17;;
24223;SDS011;12359;49.716;9.212;2022-09-17T10:14:39;8.60;;;2.20;;
24223;SDS011;12359;49.716;9.212;2022-09-17T10:22:25;5.18;;;2.33;;
24223;SDS011;12359;49.716;9.212;2022-09-17T10:25:03;9.88;;;2.72;;
24223;SDS011;12359;49.716;9.212;2022-09-17T10:27:31;6.40;;;2.17;;
24223;SDS011;12359;49.716;9.212;2022-09-17T10:30:03;6.28;;;2.42;;
24223;SDS011;12359;49.716;9.212;2022-09-17T10:32:39;7.57;;;2.38;;
24223;SDS011;12359;49.716;9.212;2022-09-17T10:35:23;8.38;;;2.03;;
24223;SDS011;12359;49.716;9.212;2022-09-17T10:37:51;7.15;;;1.95;;
24223;SDS011;12359;49.716;9.212;2022-09-17T10:42:44;3.42;;;1.75;;
24223;SDS011;12359;49.716;9.212;2022-09-17T10:45:32;6.78;;;2.03;;
24223;SDS011;12359;49.716;9.212;2022-09-17T10:48:00;3.33;;;2.05;;
24223;SDS011;12359;49.716;9.212;2022-09-17T10:50:27;6.75;;;2.40;;
24223;SDS011;12359;49.716;9.212;2022-09-17T10:52:59;7.18;;;2.97;;
24223;SDS011;12359;49.716;9.212;2022-09-17T11:03:17;3.35;;;1.90;;
24223;SDS011;12359;49.716;9.212;2022-09-17T11:06:02;4.43;;;2.15;;
24223;SDS011;12359;49.716;9.212;2022-09-17T11:08:40;3.33;;;1.73;;
24223;SDS011;12359;49.716;9.212;2022-09-17T11:11:28;3.42;;;2.60;;
24223;SDS011;12359;49.716;9.212;2022-09-17T11:14:09;6.40;;;2.15;;
24223;SDS011;12359;49.716;9.212;2022-09-17T11:22:14;3.95;;;1.60;;
24223;SDS011;12359;49.716;9.212;2022-09-17T11:30:19;6.75;;;1.55;;
24223;SDS011;12359;49.716;9.212;2022-09-17T11:35:54;3.67;;;1.00;;
24223;SDS011;12359;49.716;9.212;2022-09-17T11:41:02;3.70;;;1.52;;
24223;SDS011;12359;49.716;9.212;2022-09-17T11:43:36;2.10;;;1.47;;
24223;SDS011;12359;49.716;9.212;2022-09-17T11:46:13;1.40;;;1.02;;
24223;SDS011;12359;49.716;9.212;2022-09-17T11:48:46;2.50;;;1.20;;
24223;SDS011;12359;49.716;9.212;2022-09-17T11:54:07;2.80;;;1.20;;
24223;SDS011;12359;49.716;9.212;2022-09-17T11:56:46;2.50;;;1.15;;
24223;SDS011;12359;49.716;9.212;2022-09-17T12:01:57;5.10;;;1.40;;
24223;SDS011;12359;49.716;9.212;2022-09-17T12:04:43;3.80;;;1.05;;
24223;SDS011;12359;49.716;9.212;2022-09-17T12:10:32;2.63;;;1.33;;
24223;SDS011;12359;49.716;9.212;2022-09-17T12:16:18;6.10;;;1.95;;
24223;SDS011;12359;49.716;9.212;2022-09-17T12:19:16;2.95;;;1.38;;
24223;SDS011;12359;49.716;9.212;2022-09-17T12:21:51;2.88;;;1.30;;
24223;SDS011;12359;49.716;9.212;2022-09-17T12:26:56;2.97;;;2.03;;
24223;SDS011;12359;49.716;9.212;2022-09-17T12:30:00;3.88;;;1.75;;
24223;SDS011;12359;49.716;9.212;2022-09-17T13:01:16;4.32;;;1.35;;
24223;SDS011;12359;49.716;9.212;2022-09-17T13:03:54;1.63;;;1.17;;
24223;SDS011;12359;49.716;9.212;2022-09-17T13:12:24;2.78;;;1.27;;
24223;SDS011;12359;49.716;9.212;2022-09-17T13:20:16;3.35;;;1.20;;
24223;SDS011;12359;49.716;9.212;2022-09-17T13:23:07;3.50;;;1.30;;
24223;SDS011;12359;49.716;9.212;2022-09-17T13:25:34;6.25;;;1.42;;
24223;SDS011;12359;49.716;9.212;2022-09-17T13:28:16;1.67;;;1.25;;
24223;SDS011;12359;49.716;9.212;2022-09-17T13:31:00;4.07;;;2.50;;
24223;SDS011;12359;49.716;9.212;2022-09-17T13:39:03;2.72;;;1.50;;
24223;SDS011;12359;49.716;9.212;2022-09-17T13:41:32;4.13;;;1.23;;
24223;SDS011;12359;49.716;9.212;2022-09-17T13:44:05;5.68;;;1.95;;
24223;SDS011;12359;49.716;9.212;2022-09-17T13:46:33;3.17;;;1.52;;
24223;SDS011;12359;49.716;9.212;2022-09-17T13:49:01;4.93;;;1.77;;
24223;SDS011;12359;49.716;9.212;2022-09-17T13:54:04;2.38;;;1.35;;
24223;SDS011;12359;49.716;9.212;2022-09-17T13:56:40;5.97;;;1.50;;
24223;SDS011;12359;49.716;9.212;2022-09-17T13:59:17;6.30;;;1.92;;
24223;SDS011;12359;49.716;9.212;2022-09-17T14:01:55;2.78;;;1.45;;
24223;SDS011;12359;49.716;9.212;2022-09-17T14:07:43;2.90;;;1.95;;
24223;SDS011;12359;49.716;9.212;2022-09-17T14:18:01;2.30;;;1.33;;
24223;SDS011;12359;49.716;9.212;2022-09-17T14:23:34;3.13;;;1.33;;
24223;SDS011;12359;49.716;9.212;2022-09-17T14:26:10;1.48;;;1.38;;
24223;SDS011;12359;49.716;9.212;2022-09-17T14:29:32;1.55;;;1.45;;
24223;SDS011;12359;49.716;9.212;2022-09-17T14:33:57;3.22;;;1.20;;
24223;SDS011;12359;49.716;9.212;2022-09-17T14:36:29;4.72;;;1.45;;
24223;SDS011;12359;49.716;9.212;2022-09-17T14:38:59;3.80;;;1.40;;
24223;SDS011;12359;49.716;9.212;2022-09-17T14:41:28;4.22;;;1.17;;
24223;SDS011;12359;49.716;9.212;2022-09-17T14:44:01;1.67;;;1.48;;
24223;SDS011;12359;49.716;9.212;2022-09-17T14:46:37;5.07;;;1.63;;
24223;SDS011;12359;49.716;9.212;2022-09-17T14:51:46;3.75;;;3.28;;
24223;SDS011;12359;49.716;9.212;2022-09-17T14:56:48;5.40;;;2.65;;
24223;SDS011;12359;49.716;9.212;2022-09-17T15:00:03;2.33;;;1.40;;
24223;SDS011;12359;49.716;9.212;2022-09-17T15:04:58;1.58;;;1.17;;
24223;SDS011;12359;49.716;9.212;2022-09-17T15:07:25;3.67;;;1.50;;
24223;SDS011;12359;49.716;9.212;2022-09-17T15:09:51;2.50;;;1.20;;
24223;SDS011;12359;49.716;9.212;2022-09-17T15:12:21;4.07;;;1.38;;
24223;SDS011;12359;49.716;9.212;2022-09-17T15:14:51;3.00;;;1.27;;
24223;SDS011;12359;49.716;9.212;2022-09-17T15:17:19;1.83;;;0.60;;
24223;SDS011;12359;49.716;9.212;2022-09-17T15:19:46;0.90;;;0.80;;
24223;SDS011;12359;49.716;9.212;2022-09-17T15:22:36;0.45;;;0.43;;
24223;SDS011;12359;49.716;9.212;2022-09-17T15:25:08;0.93;;;0.60;;
24223;SDS011;12359;49.716;9.212;2022-09-17T15:27:40;1.10;;;0.68;;
24223;SDS011;12359;49.716;9.212;2022-09-17T15:32:37;1.73;;;0.60;;
24223;SDS011;12359;49.716;9.212;2022-09-17T15:37:56;4.00;;;0.80;;
24223;SDS011;12359;49.716;9.212;2022-09-17T15:42:49;1.98;;;0.77;;
24223;SDS011;12359;49.716;9.212;2022-09-17T15:45:35;4.88;;;1.40;;
24223;SDS011;12359;49.716;9.212;2022-09-17T15:48:02;3.67;;;1.05;;
24223;SDS011;12359;49.716;9.212;2022-09-17T15:50:28;1.90;;;1.38;;
24223;SDS011;12359;49.716;9.212;2022-09-17T15:58:22;5.65;;;3.10;;
24223;SDS011;12359;49.716;9.212;2022-09-17T16:06:32;1.35;;;1.13;;
24223;SDS011;12359;49.716;9.212;2022-09-17T16:11:29;1.13;;;0.95;;
24223;SDS011;12359;49.716;9.212;2022-09-17T16:13:56;1.10;;;1.00;;
24223;SDS011;12359;49.716;9.212;2022-09-17T16:16:24;1.55;;;1.27;;
24223;SDS011;12359;49.716;9.212;2022-09-17T16:18:55;2.55;;;0.77;;
24223;SDS011;12359;49.716;9.212;2022-09-17T16:21:21;1.45;;;1.10;;
24223;SDS011;12359;49.716;9.212;2022-09-17T16:23:46;1.05;;;0.95;;
24223;SDS011;12359;49.716;9.212;2022-09-17T16:26:17;2.45;;;1.40;;
24223;SDS011;12359;49.716;9.212;2022-09-17T16:28:45;1.45;;;1.10;;
24223;SDS011;12359;49.716;9.212;2022-09-17T16:31:13;4.90;;;1.10;;
24223;SDS011;12359;49.716;9.212;2022-09-17T16:33:39;1.40;;;1.30;;
24223;SDS011;12359;49.716;9.212;2022-09-17T16:36:05;4.93;;;1.42;;
24223;SDS011;12359;49.716;9.212;2022-09-17T16:38:32;1.95;;;1.77;;
24223;SDS011;12359;49.716;9.212;2022-09-17T16:40:57;2.60;;;1.75;;
24223;SDS011;12359;49.716;9.212;2022-09-17T16:43:23;4.05;;;1.38;;
24223;SDS011;12359;49.716;9.212;2022-09-17T16:46:02;1.98;;;1.10;;
24223;SDS011;12359;49.716;9.212;2022-09-17T16:48:30;1.35;;;0.95;;
24223;SDS011;12359;49.716;9.212;2022-09-17T16:50:57;1.50;;;0.95;;
24223;SDS011;12359;49.716;9.212;2022-09-17T16:53:24;1.75;;;0.98;;
24223;SDS011;12359;49.716;9.212;2022-09-17T16:55:49;0.85;;;0.82;;
24223;SDS011;12359;49.716;9.212;2022-09-17T16:58:15;1.83;;;1.05;;
24223;SDS011;12359;49.716;9.212;2022-09-17T17:00:41;2.10;;;0.93;;
24223;SDS011;12359;49.716;9.212;2022-09-17T17:03:08;0.90;;;0.73;;
24223;SDS011;12359;49.716;9.212;2022-09-17T17:05:38;1.08;;;0.73;;
24223;SDS011;12359;49.716;9.212;2022-09-17T17:08:04;0.52;;;0.52;;
24223;SDS011;12359;49.716;9.212;2022-09-17T17:10:32;0.82;;;0.82;;
24223;SDS011;12359;49.716;9.212;2022-09-17T17:12:58;9.13;;;2.50;;
24223;SDS011;12359;49.716;9.212;2022-09-17T17:15:23;3.92;;;1.75;;
24223;SDS011;12359;49.716;9.212;2022-09-17T17:17:49;4.53;;;1.85;;
24223;SDS011;12359;49.716;9.212;2022-09-17T17:20:15;4.95;;;1.55;;
24223;SDS011;12359;49.716;9.212;2022-09-17T17:22:41;2.80;;;1.35;;
24223;SDS011;12359;49.716;9.212;2022-09-17T17:25:07;1.20;;;0.75;;
24223;SDS011;12359;49.716;9.212;2022-09-17T17:27:34;2.83;;;1.30;;
24223;SDS011;12359;49.716;9.212;2022-09-17T17:29:59;1.38;;;1.27;;
24223;SDS011;12359;49.716;9.212;2022-09-17T17:32:29;2.13;;;1.08;;
24223;SDS011;12359;49.716;9.212;2022-09-17T17:34:55;1.52;;;1.25;;
24223;SDS011;12359;49.716;9.212;2022-09-17T17:37:20;0.82;;;0.82;;
24223;SDS011;12359;49.716;9.212;2022-09-17T17:39:47;1.17;;;0.88;;
24223;SDS011;12359;49.716;9.212;2022-09-17T17:42:13;1.35;;;0.90;;
24223;SDS011;12359;49.716;9.212;2022-09-17T17:44:39;2.58;;;1.58;;
24223;SDS011;12359;49.716;9.212;2022-09-17T17:47:05;1.60;;;1.10;;
24223;SDS011;12359;49.716;9.212;2022-09-17T17:49:31;2.00;;;1.40;;
24223;SDS011;12359;49.716;9.212;2022-09-17T17:51:57;2.13;;;1.20;;
24223;SDS011;12359;49.716;9.212;2022-09-17T17:54:24;2.92;;;1.50;;
24223;SDS011;12359;49.716;9.212;2022-09-17T17:56:51;3.45;;;1.05;;
24223;SDS011;12359;49.716;9.212;2022-09-17T17:59:17;1.05;;;1.00;;
24223;SDS011;12359;49.716;9.212;2022-09-17T18:01:43;5.43;;;4.93;;
24223;SDS011;12359;49.716;9.212;2022-09-17T18:04:08;7.15;;;3.53;;
24223;SDS011;12359;49.716;9.212;2022-09-17T18:06:34;6.13;;;4.20;;
24223;SDS011;12359;49.716;9.212;2022-09-17T18:09:00;2.85;;;1.80;;
24223;SDS011;12359;49.716;9.212;2022-09-17T18:11:27;1.00;;;0.98;;
24223;SDS011;12359;49.716;9.212;2022-09-17T18:13:53;2.58;;;1.88;;
24223;SDS011;12359;49.716;9.212;2022-09-17T18:16:21;2.30;;;2.05;;
24223;SDS011;12359;49.716;9.212;2022-09-17T18:18:47;1.92;;;1.83;;
24223;SDS011;12359;49.716;9.212;2022-09-17T18:21:15;2.15;;;1.95;;
24223;SDS011;12359;49.716;9.212;2022-09-17T18:23:42;2.78;;;1.20;;
24223;SDS011;12359;49.716;9.212;2022-09-17T18:26:10;2.08;;;1.70;;
24223;SDS011;12359;49.716;9.212;2022-09-17T18:28:43;2.83;;;2.50;;
24223;SDS011;12359;49.716;9.212;2022-09-17T18:33:35;5.10;;;1.95;;
24223;SDS011;12359;49.716;9.212;2022-09-17T18:36:02;2.75;;;1.45;;
24223;SDS011;12359;49.716;9.212;2022-09-17T18:38:29;3.95;;;1.50;;
24223;SDS011;12359;49.716;9.212;2022-09-17T18:41:01;1.35;;;1.15;;
24223;SDS011;12359;49.716;9.212;2022-09-17T18:43:28;1.45;;;1.00;;
24223;SDS011;12359;49.716;9.212;2022-09-17T18:45:54;1.40;;;1.30;;
24223;SDS011;12359;49.716;9.212;2022-09-17T18:48:21;3.75;;;1.63;;
24223;SDS011;12359;49.716;9.212;2022-09-17T18:50:57;3.13;;;1.52;;
24223;SDS011;12359;49.716;9.212;2022-09-17T18:53:24;3.17;;;1.25;;
24223;SDS011;12359;49.716;9.212;2022-09-17T18:55:51;2.55;;;1.08;;
24223;SDS011;12359;49.716;9.212;2022-09-17T18:58:18;3.42;;;1.30;;
24223;SDS011;12359;49.716;9.212;2022-09-17T19:00:43;3.95;;;1.45;;
24223;SDS011;12359;49.716;9.212;2022-09-17T19:03:10;1.88;;;0.82;;
24223;SDS011;12359;49.716;9.212;2022-09-17T19:05:36;4.05;;;1.02;;
24223;SDS011;12359;49.716;9.212;2022-09-17T19:08:01;2.33;;;0.80;;
24223;SDS011;12359;49.716;9.212;2022-09-17T19:10:29;2.42;;;1.20;;
24223;SDS011;12359;49.716;9.212;2022-09-17T19:12:56;1.80;;;0.88;;
24223;SDS011;12359;49.716;9.212;2022-09-17T19:15:21;1.55;;;0.68;;